sensor_id;sensor_type;location;lat;lon;timestamp;P1;durP1;ratioP1;P2;durP2;ratioP2
27187;SDS011;14708;50.872;5.306;2022-08-19T00:00:28;7.15;;;6.65;;
27187;SDS011;14708;50.872;5.306;2022-08-19T00:02:54;7.20;;;6.60;;
27187;SDS011;14708;50.872;5.306;2022-08-19T00:05:20;7.63;;;6.93;;
27187;SDS011;14708;50.872;5.306;2022-08-19T00:07:47;8.02;;;7.30;;
27187;SDS011;14708;50.872;5.306;2022-08-19T00:10:14;7.72;;;7.03;;
27187;SDS011;14708;50.872;5.306;2022-08-19T00:12:41;7.40;;;6.80;;
27187;SDS011;14708;50.872;5.306;2022-08-19T00:15:08;6.95;;;6.40;;
27187;SDS011;14708;50.872;5.306;2022-08-19T00:17:38;7.03;;;6.43;;
27187;SDS011;14708;50.872;5.306;2022-08-19T00:20:05;7.13;;;6.60;;
27187;SDS011;14708;50.872;5.306;2022-08-19T00:22:31;6.85;;;6.25;;
27187;SDS011;14708;50.872;5.306;2022-08-19T00:24:58;6.68;;;6.07;;
27187;SDS011;14708;50.872;5.306;2022-08-19T00:27:23;7.00;;;6.45;;
27187;SDS011;14708;50.872;5.306;2022-08-19T00:29:49;7.03;;;6.43;;
27187;SDS011;14708;50.872;5.306;2022-08-19T00:32:15;7.00;;;6.40;;
27187;SDS011;14708;50.872;5.306;2022-08-19T00:34:41;7.18;;;6.47;;
27187;SDS011;14708;50.872;5.306;2022-08-19T00:37:06;6.75;;;6.20;;
27187;SDS011;14708;50.872;5.306;2022-08-19T00:39:32;6.78;;;6.28;;
27187;SDS011;14708;50.872;5.306;2022-08-19T00:41:58;7.25;;;6.65;;
27187;SDS011;14708;50.872;5.306;2022-08-19T00:44:25;6.65;;;6.13;;
27187;SDS011;14708;50.872;5.306;2022-08-19T00:46:52;7.47;;;6.82;;
27187;SDS011;14708;50.872;5.306;2022-08-19T00:49:23;6.93;;;6.35;;
27187;SDS011;14708;50.872;5.306;2022-08-19T00:52:07;6.70;;;6.20;;
27187;SDS011;14708;50.872;5.306;2022-08-19T00:54:37;6.88;;;6.30;;
27187;SDS011;14708;50.872;5.306;2022-08-19T00:57:04;6.60;;;6.10;;
27187;SDS011;14708;50.872;5.306;2022-08-19T00:59:33;6.90;;;6.30;;
27187;SDS011;14708;50.872;5.306;2022-08-19T01:02:01;6.97;;;6.45;;
27187;SDS011;14708;50.872;5.306;2022-08-19T01:04:28;6.80;;;6.20;;
27187;SDS011;14708;50.872;5.306;2022-08-19T01:06:53;7.63;;;7.03;;
27187;SDS011;14708;50.872;5.306;2022-08-19T01:09:21;7.00;;;6.30;;
27187;SDS011;14708;50.872;5.306;2022-08-19T01:11:46;7.22;;;6.63;;
27187;SDS011;14708;50.872;5.306;2022-08-19T01:14:12;6.68;;;6.07;;
27187;SDS011;14708;50.872;5.306;2022-08-19T01:16:38;6.63;;;6.03;;
27187;SDS011;14708;50.872;5.306;2022-08-19T01:19:15;6.68;;;6.18;;
27187;SDS011;14708;50.872;5.306;2022-08-19T01:21:51;7.22;;;6.63;;
27187;SDS011;14708;50.872;5.306;2022-08-19T01:24:22;7.05;;;6.45;;
27187;SDS011;14708;50.872;5.306;2022-08-19T01:26:48;7.32;;;6.72;;
27187;SDS011;14708;50.872;5.306;2022-08-19T01:29:14;6.82;;;6.28;;
27187;SDS011;14708;50.872;5.306;2022-08-19T01:31:39;6.30;;;5.80;;
27187;SDS011;14708;50.872;5.306;2022-08-19T01:34:05;7.05;;;6.55;;
27187;SDS011;14708;50.872;5.306;2022-08-19T01:36:40;7.38;;;6.78;;
27187;SDS011;14708;50.872;5.306;2022-08-19T01:39:12;6.45;;;5.95;;
27187;SDS011;14708;50.872;5.306;2022-08-19T01:44:07;6.43;;;5.93;;
27187;SDS011;14708;50.872;5.306;2022-08-19T01:46:34;6.45;;;5.90;;
27187;SDS011;14708;50.872;5.306;2022-08-19T01:49:01;6.72;;;6.13;;
27187;SDS011;14708;50.872;5.306;2022-08-19T01:51:28;7.00;;;6.40;;
27187;SDS011;14708;50.872;5.306;2022-08-19T01:53:55;6.75;;;6.15;;
27187;SDS011;14708;50.872;5.306;2022-08-19T01:56:21;6.32;;;5.90;;
27187;SDS011;14708;50.872;5.306;2022-08-19T01:58:49;6.47;;;5.95;;
27187;SDS011;14708;50.872;5.306;2022-08-19T02:01:18;6.70;;;6.20;;
27187;SDS011;14708;50.872;5.306;2022-08-19T02:03:44;7.00;;;6.50;;
27187;SDS011;14708;50.872;5.306;2022-08-19T02:06:11;6.88;;;6.25;;
27187;SDS011;14708;50.872;5.306;2022-08-19T02:08:37;6.22;;;5.72;;
27187;SDS011;14708;50.872;5.306;2022-08-19T02:11:04;6.22;;;5.78;;
27187;SDS011;14708;50.872;5.306;2022-08-19T02:13:30;6.50;;;6.00;;
27187;SDS011;14708;50.872;5.306;2022-08-19T02:15:56;6.72;;;6.22;;
27187;SDS011;14708;50.872;5.306;2022-08-19T02:18:22;6.53;;;6.03;;
27187;SDS011;14708;50.872;5.306;2022-08-19T02:20:48;6.70;;;6.15;;
27187;SDS011;14708;50.872;5.306;2022-08-19T02:23:14;6.15;;;5.65;;
27187;SDS011;14708;50.872;5.306;2022-08-19T02:25:41;5.97;;;5.57;;
27187;SDS011;14708;50.872;5.306;2022-08-19T02:28:09;6.40;;;5.90;;
27187;SDS011;14708;50.872;5.306;2022-08-19T02:30:36;6.75;;;6.25;;
27187;SDS011;14708;50.872;5.306;2022-08-19T02:33:03;6.63;;;6.07;;
27187;SDS011;14708;50.872;5.306;2022-08-19T02:35:29;6.03;;;5.57;;
27187;SDS011;14708;50.872;5.306;2022-08-19T02:37:55;6.20;;;5.70;;
27187;SDS011;14708;50.872;5.306;2022-08-19T02:40:39;6.65;;;6.15;;
27187;SDS011;14708;50.872;5.306;2022-08-19T02:43:05;6.38;;;5.88;;
27187;SDS011;14708;50.872;5.306;2022-08-19T02:45:36;6.53;;;6.03;;
27187;SDS011;14708;50.872;5.306;2022-08-19T02:48:03;6.38;;;5.88;;
27187;SDS011;14708;50.872;5.306;2022-08-19T02:50:29;6.38;;;5.78;;
27187;SDS011;14708;50.872;5.306;2022-08-19T02:52:55;6.90;;;6.32;;
27187;SDS011;14708;50.872;5.306;2022-08-19T02:55:21;7.03;;;6.47;;
27187;SDS011;14708;50.872;5.306;2022-08-19T02:57:47;6.15;;;5.65;;
27187;SDS011;14708;50.872;5.306;2022-08-19T03:00:13;6.10;;;5.70;;
27187;SDS011;14708;50.872;5.306;2022-08-19T03:02:39;7.05;;;6.45;;
27187;SDS011;14708;50.872;5.306;2022-08-19T03:05:06;6.13;;;5.70;;
27187;SDS011;14708;50.872;5.306;2022-08-19T03:07:34;5.75;;;5.35;;
27187;SDS011;14708;50.872;5.306;2022-08-19T03:10:00;6.35;;;5.85;;
27187;SDS011;14708;50.872;5.306;2022-08-19T03:12:26;6.50;;;6.00;;
27187;SDS011;14708;50.872;5.306;2022-08-19T03:14:52;6.63;;;6.13;;
27187;SDS011;14708;50.872;5.306;2022-08-19T03:17:17;6.30;;;5.80;;
27187;SDS011;14708;50.872;5.306;2022-08-19T03:19:43;6.68;;;6.18;;
27187;SDS011;14708;50.872;5.306;2022-08-19T03:22:09;6.82;;;6.22;;
27187;SDS011;14708;50.872;5.306;2022-08-19T03:24:35;6.57;;;6.07;;
27187;SDS011;14708;50.872;5.306;2022-08-19T03:27:01;6.03;;;5.63;;
27187;SDS011;14708;50.872;5.306;2022-08-19T03:29:29;6.35;;;5.85;;
27187;SDS011;14708;50.872;5.306;2022-08-19T03:31:57;6.78;;;6.07;;
27187;SDS011;14708;50.872;5.306;2022-08-19T03:34:26;6.68;;;6.07;;
27187;SDS011;14708;50.872;5.306;2022-08-19T03:36:54;6.67;;;6.13;;
27187;SDS011;14708;50.872;5.306;2022-08-19T03:39:23;6.20;;;5.75;;
27187;SDS011;14708;50.872;5.306;2022-08-19T03:41:50;6.75;;;6.25;;
27187;SDS011;14708;50.872;5.306;2022-08-19T03:44:21;6.38;;;5.88;;
27187;SDS011;14708;50.872;5.306;2022-08-19T03:46:52;6.20;;;5.70;;
27187;SDS011;14708;50.872;5.306;2022-08-19T03:49:20;6.63;;;6.13;;
27187;SDS011;14708;50.872;5.306;2022-08-19T03:51:48;6.50;;;6.00;;
27187;SDS011;14708;50.872;5.306;2022-08-19T03:54:15;6.40;;;5.90;;
27187;SDS011;14708;50.872;5.306;2022-08-19T03:56:46;6.75;;;6.15;;
27187;SDS011;14708;50.872;5.306;2022-08-19T03:59:16;6.45;;;5.90;;
27187;SDS011;14708;50.872;5.306;2022-08-19T04:01:50;6.90;;;6.40;;
27187;SDS011;14708;50.872;5.306;2022-08-19T04:04:17;6.40;;;5.90;;
27187;SDS011;14708;50.872;5.306;2022-08-19T04:06:42;6.45;;;5.85;;
27187;SDS011;14708;50.872;5.306;2022-08-19T04:09:09;6.25;;;5.75;;
27187;SDS011;14708;50.872;5.306;2022-08-19T04:11:57;5.77;;;5.37;;
27187;SDS011;14708;50.872;5.306;2022-08-19T04:14:24;6.40;;;5.90;;
27187;SDS011;14708;50.872;5.306;2022-08-19T04:16:53;6.47;;;5.97;;
27187;SDS011;14708;50.872;5.306;2022-08-19T04:19:19;6.35;;;5.85;;
27187;SDS011;14708;50.872;5.306;2022-08-19T04:21:46;6.55;;;5.95;;
27187;SDS011;14708;50.872;5.306;2022-08-19T04:24:15;6.57;;;6.07;;
27187;SDS011;14708;50.872;5.306;2022-08-19T04:26:40;5.80;;;5.40;;
27187;SDS011;14708;50.872;5.306;2022-08-19T04:29:07;6.50;;;6.00;;
27187;SDS011;14708;50.872;5.306;2022-08-19T04:31:38;6.57;;;6.07;;
27187;SDS011;14708;50.872;5.306;2022-08-19T04:34:06;6.43;;;5.88;;
27187;SDS011;14708;50.872;5.306;2022-08-19T04:36:36;6.32;;;5.82;;
27187;SDS011;14708;50.872;5.306;2022-08-19T04:39:08;6.28;;;5.78;;
27187;SDS011;14708;50.872;5.306;2022-08-19T04:41:35;6.22;;;5.72;;
27187;SDS011;14708;50.872;5.306;2022-08-19T04:44:34;6.68;;;6.07;;
27187;SDS011;14708;50.872;5.306;2022-08-19T04:47:00;6.00;;;5.53;;
27187;SDS011;14708;50.872;5.306;2022-08-19T04:49:30;6.95;;;6.43;;
27187;SDS011;14708;50.872;5.306;2022-08-19T04:51:55;6.25;;;5.75;;
27187;SDS011;14708;50.872;5.306;2022-08-19T04:54:22;5.90;;;5.50;;
27187;SDS011;14708;50.872;5.306;2022-08-19T04:56:50;6.30;;;5.80;;
27187;SDS011;14708;50.872;5.306;2022-08-19T04:59:17;6.32;;;5.82;;
27187;SDS011;14708;50.872;5.306;2022-08-19T05:01:44;6.15;;;5.65;;
27187;SDS011;14708;50.872;5.306;2022-08-19T05:04:14;6.15;;;5.65;;
27187;SDS011;14708;50.872;5.306;2022-08-19T05:06:41;6.13;;;5.63;;
27187;SDS011;14708;50.872;5.306;2022-08-19T05:09:08;6.32;;;5.82;;
27187;SDS011;14708;50.872;5.306;2022-08-19T05:11:34;6.22;;;5.72;;
27187;SDS011;14708;50.872;5.306;2022-08-19T05:14:03;6.30;;;5.80;;
27187;SDS011;14708;50.872;5.306;2022-08-19T05:16:30;6.13;;;5.63;;
27187;SDS011;14708;50.872;5.306;2022-08-19T05:18:55;6.50;;;5.90;;
27187;SDS011;14708;50.872;5.306;2022-08-19T05:21:40;5.93;;;5.53;;
27187;SDS011;14708;50.872;5.306;2022-08-19T05:24:26;6.20;;;5.60;;
27187;SDS011;14708;50.872;5.306;2022-08-19T05:26:52;6.40;;;5.80;;
27187;SDS011;14708;50.872;5.306;2022-08-19T05:31:48;6.20;;;5.60;;
27187;SDS011;14708;50.872;5.306;2022-08-19T05:34:15;6.30;;;5.80;;
27187;SDS011;14708;50.872;5.306;2022-08-19T05:36:43;6.28;;;5.78;;
27187;SDS011;14708;50.872;5.306;2022-08-19T05:39:11;6.25;;;5.75;;
27187;SDS011;14708;50.872;5.306;2022-08-19T05:41:46;8.80;;;8.00;;
27187;SDS011;14708;50.872;5.306;2022-08-19T05:44:18;20.23;;;17.20;;
27187;SDS011;14708;50.872;5.306;2022-08-19T05:46:45;28.33;;;21.10;;
27187;SDS011;14708;50.872;5.306;2022-08-19T05:51:40;28.52;;;25.40;;
27187;SDS011;14708;50.872;5.306;2022-08-19T05:54:07;32.35;;;25.95;;
27187;SDS011;14708;50.872;5.306;2022-08-19T05:56:33;36.53;;;25.27;;
27187;SDS011;14708;50.872;5.306;2022-08-19T05:59:03;30.65;;;25.45;;
27187;SDS011;14708;50.872;5.306;2022-08-19T06:01:34;27.42;;;24.33;;
27187;SDS011;14708;50.872;5.306;2022-08-19T06:04:01;33.80;;;24.30;;
27187;SDS011;14708;50.872;5.306;2022-08-19T06:06:27;56.47;;;25.38;;
27187;SDS011;14708;50.872;5.306;2022-08-19T06:08:53;56.22;;;26.25;;
27187;SDS011;14708;50.872;5.306;2022-08-19T06:13:48;34.25;;;22.13;;
27187;SDS011;14708;50.872;5.306;2022-08-19T06:16:20;37.78;;;22.05;;
27187;SDS011;14708;50.872;5.306;2022-08-19T06:18:50;31.25;;;22.27;;
27187;SDS011;14708;50.872;5.306;2022-08-19T06:21:17;28.88;;;20.48;;
27187;SDS011;14708;50.872;5.306;2022-08-19T06:23:44;29.33;;;21.10;;
27187;SDS011;14708;50.872;5.306;2022-08-19T06:26:14;24.77;;;20.00;;
27187;SDS011;14708;50.872;5.306;2022-08-19T06:28:40;24.48;;;19.70;;
27187;SDS011;14708;50.872;5.306;2022-08-19T06:33:35;25.90;;;19.35;;
27187;SDS011;14708;50.872;5.306;2022-08-19T06:36:02;25.17;;;19.05;;
27187;SDS011;14708;50.872;5.306;2022-08-19T06:38:28;23.08;;;17.80;;
27187;SDS011;14708;50.872;5.306;2022-08-19T06:41:03;21.52;;;18.02;;
27187;SDS011;14708;50.872;5.306;2022-08-19T06:43:29;19.48;;;17.05;;
27187;SDS011;14708;50.872;5.306;2022-08-19T06:45:54;22.60;;;16.95;;
27187;SDS011;14708;50.872;5.306;2022-08-19T06:48:20;22.77;;;17.77;;
27187;SDS011;14708;50.872;5.306;2022-08-19T06:50:46;23.95;;;17.10;;
27187;SDS011;14708;50.872;5.306;2022-08-19T06:53:13;24.10;;;17.42;;
27187;SDS011;14708;50.872;5.306;2022-08-19T06:55:38;27.23;;;17.83;;
27187;SDS011;14708;50.872;5.306;2022-08-19T06:58:05;22.23;;;17.17;;
27187;SDS011;14708;50.872;5.306;2022-08-19T07:00:31;27.30;;;17.08;;
27187;SDS011;14708;50.872;5.306;2022-08-19T07:02:57;33.35;;;17.35;;
27187;SDS011;14708;50.872;5.306;2022-08-19T07:05:23;30.77;;;17.77;;
27187;SDS011;14708;50.872;5.306;2022-08-19T07:07:49;31.80;;;17.08;;
27187;SDS011;14708;50.872;5.306;2022-08-19T07:10:15;29.70;;;17.38;;
27187;SDS011;14708;50.872;5.306;2022-08-19T07:12:40;31.67;;;18.20;;
27187;SDS011;14708;50.872;5.306;2022-08-19T07:15:06;26.80;;;16.92;;
27187;SDS011;14708;50.872;5.306;2022-08-19T07:17:34;25.85;;;16.30;;
27187;SDS011;14708;50.872;5.306;2022-08-19T07:22:31;21.60;;;16.17;;
27187;SDS011;14708;50.872;5.306;2022-08-19T07:24:58;24.67;;;17.10;;
27187;SDS011;14708;50.872;5.306;2022-08-19T07:27:24;21.58;;;15.30;;
27187;SDS011;14708;50.872;5.306;2022-08-19T07:29:50;21.67;;;15.85;;
27187;SDS011;14708;50.872;5.306;2022-08-19T07:32:18;23.63;;;15.90;;
27187;SDS011;14708;50.872;5.306;2022-08-19T07:34:44;29.85;;;15.77;;
27187;SDS011;14708;50.872;5.306;2022-08-19T07:37:10;23.27;;;14.60;;
27187;SDS011;14708;50.872;5.306;2022-08-19T07:39:36;22.38;;;14.18;;
27187;SDS011;14708;50.872;5.306;2022-08-19T07:42:05;21.17;;;14.15;;
27187;SDS011;14708;50.872;5.306;2022-08-19T07:44:32;21.73;;;14.25;;
27187;SDS011;14708;50.872;5.306;2022-08-19T07:46:59;21.13;;;13.40;;
27187;SDS011;14708;50.872;5.306;2022-08-19T07:49:26;30.52;;;21.27;;
27187;SDS011;14708;50.872;5.306;2022-08-19T07:51:53;23.92;;;17.55;;
27187;SDS011;14708;50.872;5.306;2022-08-19T07:54:21;21.38;;;15.65;;
27187;SDS011;14708;50.872;5.306;2022-08-19T07:56:48;25.13;;;14.30;;
27187;SDS011;14708;50.872;5.306;2022-08-19T07:59:15;24.55;;;12.63;;
27187;SDS011;14708;50.872;5.306;2022-08-19T08:01:42;21.83;;;12.77;;
27187;SDS011;14708;50.872;5.306;2022-08-19T08:04:09;40.72;;;14.90;;
27187;SDS011;14708;50.872;5.306;2022-08-19T08:06:57;87.30;;;19.55;;
27187;SDS011;14708;50.872;5.306;2022-08-19T08:09:42;81.65;;;17.35;;
27187;SDS011;14708;50.872;5.306;2022-08-19T08:12:10;74.00;;;15.75;;
27187;SDS011;14708;50.872;5.306;2022-08-19T08:17:06;39.70;;;11.23;;
27187;SDS011;14708;50.872;5.306;2022-08-19T08:19:33;36.20;;;9.77;;
27187;SDS011;14708;50.872;5.306;2022-08-19T08:21:59;55.40;;;12.65;;
27187;SDS011;14708;50.872;5.306;2022-08-19T08:24:27;49.78;;;12.35;;
27187;SDS011;14708;50.872;5.306;2022-08-19T08:26:55;49.43;;;11.20;;
27187;SDS011;14708;50.872;5.306;2022-08-19T08:29:23;41.63;;;10.95;;
27187;SDS011;14708;50.872;5.306;2022-08-19T08:31:50;31.13;;;8.95;;
27187;SDS011;14708;50.872;5.306;2022-08-19T08:34:16;38.17;;;9.80;;
27187;SDS011;14708;50.872;5.306;2022-08-19T08:36:44;23.02;;;9.05;;
27187;SDS011;14708;50.872;5.306;2022-08-19T08:39:18;30.23;;;9.60;;
27187;SDS011;14708;50.872;5.306;2022-08-19T08:42:01;25.67;;;8.77;;
27187;SDS011;14708;50.872;5.306;2022-08-19T08:47:40;19.40;;;8.45;;
27187;SDS011;14708;50.872;5.306;2022-08-19T08:50:16;25.13;;;8.38;;
27187;SDS011;14708;50.872;5.306;2022-08-19T08:52:47;22.42;;;8.32;;
27187;SDS011;14708;50.872;5.306;2022-08-19T08:55:19;19.88;;;9.00;;
27187;SDS011;14708;50.872;5.306;2022-08-19T09:00:38;17.33;;;7.88;;
27187;SDS011;14708;50.872;5.306;2022-08-19T09:03:06;18.13;;;7.57;;
27187;SDS011;14708;50.872;5.306;2022-08-19T09:05:41;17.05;;;8.27;;
27187;SDS011;14708;50.872;5.306;2022-08-19T09:08:26;18.17;;;9.95;;
27187;SDS011;14708;50.872;5.306;2022-08-19T09:10:59;15.68;;;9.63;;
27187;SDS011;14708;50.872;5.306;2022-08-19T09:16:26;13.25;;;7.85;;
27187;SDS011;14708;50.872;5.306;2022-08-19T09:18:53;22.15;;;7.97;;
27187;SDS011;14708;50.872;5.306;2022-08-19T09:21:22;12.00;;;8.35;;
27187;SDS011;14708;50.872;5.306;2022-08-19T09:23:50;18.30;;;8.23;;
27187;SDS011;14708;50.872;5.306;2022-08-19T09:26:17;16.20;;;9.63;;
27187;SDS011;14708;50.872;5.306;2022-08-19T09:28:45;17.63;;;8.80;;
27187;SDS011;14708;50.872;5.306;2022-08-19T09:31:13;13.20;;;8.70;;
27187;SDS011;14708;50.872;5.306;2022-08-19T09:33:41;21.55;;;8.60;;
27187;SDS011;14708;50.872;5.306;2022-08-19T09:36:09;21.48;;;7.03;;
27187;SDS011;14708;50.872;5.306;2022-08-19T09:38:37;17.77;;;7.85;;
27187;SDS011;14708;50.872;5.306;2022-08-19T09:41:07;17.40;;;7.18;;
27187;SDS011;14708;50.872;5.306;2022-08-19T09:43:37;12.63;;;7.13;;
27187;SDS011;14708;50.872;5.306;2022-08-19T09:46:03;12.48;;;6.47;;
27187;SDS011;14708;50.872;5.306;2022-08-19T09:48:34;17.58;;;7.20;;
27187;SDS011;14708;50.872;5.306;2022-08-19T09:51:05;15.02;;;7.15;;
27187;SDS011;14708;50.872;5.306;2022-08-19T09:53:33;14.50;;;6.63;;
27187;SDS011;14708;50.872;5.306;2022-08-19T09:56:00;15.45;;;7.50;;
27187;SDS011;14708;50.872;5.306;2022-08-19T09:58:26;16.63;;;7.63;;
27187;SDS011;14708;50.872;5.306;2022-08-19T10:00:56;10.70;;;5.75;;
27187;SDS011;14708;50.872;5.306;2022-08-19T10:03:23;16.30;;;6.88;;
27187;SDS011;14708;50.872;5.306;2022-08-19T10:05:50;9.15;;;5.78;;
27187;SDS011;14708;50.872;5.306;2022-08-19T10:08:17;10.82;;;5.72;;
27187;SDS011;14708;50.872;5.306;2022-08-19T10:10:45;10.23;;;6.03;;
27187;SDS011;14708;50.872;5.306;2022-08-19T10:13:11;16.58;;;5.95;;
27187;SDS011;14708;50.872;5.306;2022-08-19T10:15:37;8.48;;;5.68;;
27187;SDS011;14708;50.872;5.306;2022-08-19T10:18:05;16.02;;;5.97;;
27187;SDS011;14708;50.872;5.306;2022-08-19T10:20:31;9.93;;;5.70;;
27187;SDS011;14708;50.872;5.306;2022-08-19T10:22:56;8.88;;;5.63;;
27187;SDS011;14708;50.872;5.306;2022-08-19T10:25:24;8.30;;;5.10;;
27187;SDS011;14708;50.872;5.306;2022-08-19T10:27:51;8.70;;;4.93;;
27187;SDS011;14708;50.872;5.306;2022-08-19T10:30:18;9.70;;;4.97;;
27187;SDS011;14708;50.872;5.306;2022-08-19T10:32:44;11.80;;;5.70;;
27187;SDS011;14708;50.872;5.306;2022-08-19T10:35:11;6.82;;;4.63;;
27187;SDS011;14708;50.872;5.306;2022-08-19T10:37:37;6.30;;;4.45;;
27187;SDS011;14708;50.872;5.306;2022-08-19T10:40:04;7.18;;;4.63;;
27187;SDS011;14708;50.872;5.306;2022-08-19T10:42:31;9.02;;;4.55;;
27187;SDS011;14708;50.872;5.306;2022-08-19T10:44:57;7.85;;;4.60;;
27187;SDS011;14708;50.872;5.306;2022-08-19T10:47:23;5.90;;;4.38;;
27187;SDS011;14708;50.872;5.306;2022-08-19T10:49:48;8.30;;;4.78;;
27187;SDS011;14708;50.872;5.306;2022-08-19T10:52:33;8.50;;;4.10;;
27187;SDS011;14708;50.872;5.306;2022-08-19T10:54:59;6.07;;;4.40;;
27187;SDS011;14708;50.872;5.306;2022-08-19T10:57:44;6.70;;;3.75;;
27187;SDS011;14708;50.872;5.306;2022-08-19T11:00:10;10.98;;;4.10;;
27187;SDS011;14708;50.872;5.306;2022-08-19T11:02:36;6.95;;;3.75;;
27187;SDS011;14708;50.872;5.306;2022-08-19T11:05:02;9.50;;;4.18;;
27187;SDS011;14708;50.872;5.306;2022-08-19T11:07:28;9.05;;;4.65;;
27187;SDS011;14708;50.872;5.306;2022-08-19T11:09:53;9.90;;;4.07;;
27187;SDS011;14708;50.872;5.306;2022-08-19T11:12:19;8.75;;;3.95;;
27187;SDS011;14708;50.872;5.306;2022-08-19T11:14:45;6.90;;;4.18;;
27187;SDS011;14708;50.872;5.306;2022-08-19T11:17:11;5.63;;;4.10;;
27187;SDS011;14708;50.872;5.306;2022-08-19T11:19:38;7.05;;;3.80;;
27187;SDS011;14708;50.872;5.306;2022-08-19T11:22:06;7.60;;;4.47;;
27187;SDS011;14708;50.872;5.306;2022-08-19T11:24:34;5.72;;;3.50;;
27187;SDS011;14708;50.872;5.306;2022-08-19T11:27:01;6.00;;;3.50;;
27187;SDS011;14708;50.872;5.306;2022-08-19T11:29:34;5.95;;;4.10;;
27187;SDS011;14708;50.872;5.306;2022-08-19T11:32:05;5.15;;;3.00;;
27187;SDS011;14708;50.872;5.306;2022-08-19T11:34:33;5.05;;;3.10;;
27187;SDS011;14708;50.872;5.306;2022-08-19T11:37:00;7.20;;;3.45;;
27187;SDS011;14708;50.872;5.306;2022-08-19T11:39:28;5.22;;;3.72;;
27187;SDS011;14708;50.872;5.306;2022-08-19T11:41:55;4.20;;;3.33;;
27187;SDS011;14708;50.872;5.306;2022-08-19T11:44:23;5.20;;;3.30;;
27187;SDS011;14708;50.872;5.306;2022-08-19T11:46:48;6.55;;;3.85;;
27187;SDS011;14708;50.872;5.306;2022-08-19T11:49:15;7.00;;;3.30;;
27187;SDS011;14708;50.872;5.306;2022-08-19T11:54:09;7.70;;;3.70;;
27187;SDS011;14708;50.872;5.306;2022-08-19T11:56:38;3.70;;;3.28;;
27187;SDS011;14708;50.872;5.306;2022-08-19T11:59:03;4.97;;;3.45;;
27187;SDS011;14708;50.872;5.306;2022-08-19T12:01:29;8.68;;;3.08;;
27187;SDS011;14708;50.872;5.306;2022-08-19T12:03:56;7.40;;;3.47;;
27187;SDS011;14708;50.872;5.306;2022-08-19T12:06:24;11.68;;;3.55;;
27187;SDS011;14708;50.872;5.306;2022-08-19T12:08:53;6.25;;;3.60;;
27187;SDS011;14708;50.872;5.306;2022-08-19T12:11:31;6.43;;;3.13;;
27187;SDS011;14708;50.872;5.306;2022-08-19T12:13:57;6.57;;;3.05;;
27187;SDS011;14708;50.872;5.306;2022-08-19T12:16:24;5.93;;;3.17;;
27187;SDS011;14708;50.872;5.306;2022-08-19T12:18:52;12.82;;;3.13;;
27187;SDS011;14708;50.872;5.306;2022-08-19T12:21:22;10.85;;;2.90;;
27187;SDS011;14708;50.872;5.306;2022-08-19T12:23:52;11.10;;;3.38;;
27187;SDS011;14708;50.872;5.306;2022-08-19T12:26:19;7.95;;;2.95;;
27187;SDS011;14708;50.872;5.306;2022-08-19T12:28:45;8.63;;;3.13;;
27187;SDS011;14708;50.872;5.306;2022-08-19T12:31:12;8.75;;;3.10;;
27187;SDS011;14708;50.872;5.306;2022-08-19T12:33:38;7.32;;;3.40;;
27187;SDS011;14708;50.872;5.306;2022-08-19T12:36:06;5.90;;;3.05;;
27187;SDS011;14708;50.872;5.306;2022-08-19T12:38:34;8.00;;;3.03;;
27187;SDS011;14708;50.872;5.306;2022-08-19T12:41:00;8.77;;;3.53;;
27187;SDS011;14708;50.872;5.306;2022-08-19T12:43:32;4.40;;;3.03;;
27187;SDS011;14708;50.872;5.306;2022-08-19T12:46:03;5.60;;;3.28;;
27187;SDS011;14708;50.872;5.306;2022-08-19T12:48:30;6.32;;;2.60;;
27187;SDS011;14708;50.872;5.306;2022-08-19T12:50:56;5.10;;;3.05;;
27187;SDS011;14708;50.872;5.306;2022-08-19T12:53:22;39.10;;;6.72;;
27187;SDS011;14708;50.872;5.306;2022-08-19T12:55:47;24.35;;;7.75;;
27187;SDS011;14708;50.872;5.306;2022-08-19T12:58:20;15.60;;;5.75;;
27187;SDS011;14708;50.872;5.306;2022-08-19T13:00:46;15.95;;;7.03;;
27187;SDS011;14708;50.872;5.306;2022-08-19T13:03:13;25.70;;;7.90;;
27187;SDS011;14708;50.872;5.306;2022-08-19T13:05:39;37.08;;;9.40;;
27187;SDS011;14708;50.872;5.306;2022-08-19T13:08:05;24.27;;;7.53;;
27187;SDS011;14708;50.872;5.306;2022-08-19T13:10:32;37.63;;;8.40;;
27187;SDS011;14708;50.872;5.306;2022-08-19T13:13:00;26.85;;;7.40;;
27187;SDS011;14708;50.872;5.306;2022-08-19T13:15:32;26.67;;;7.40;;
27187;SDS011;14708;50.872;5.306;2022-08-19T13:17:59;25.43;;;6.67;;
27187;SDS011;14708;50.872;5.306;2022-08-19T13:20:24;26.20;;;6.47;;
27187;SDS011;14708;50.872;5.306;2022-08-19T13:22:50;26.55;;;6.40;;
27187;SDS011;14708;50.872;5.306;2022-08-19T13:25:16;22.05;;;6.05;;
27187;SDS011;14708;50.872;5.306;2022-08-19T13:27:44;17.38;;;6.15;;
27187;SDS011;14708;50.872;5.306;2022-08-19T13:30:11;16.27;;;5.95;;
27187;SDS011;14708;50.872;5.306;2022-08-19T13:32:56;19.05;;;5.88;;
27187;SDS011;14708;50.872;5.306;2022-08-19T13:35:48;24.95;;;5.90;;
27187;SDS011;14708;50.872;5.306;2022-08-19T13:38:21;14.48;;;4.93;;
27187;SDS011;14708;50.872;5.306;2022-08-19T13:40:47;17.17;;;5.03;;
27187;SDS011;14708;50.872;5.306;2022-08-19T13:43:15;21.88;;;5.75;;
27187;SDS011;14708;50.872;5.306;2022-08-19T13:45:41;21.95;;;5.93;;
27187;SDS011;14708;50.872;5.306;2022-08-19T13:48:07;25.80;;;5.13;;
27187;SDS011;14708;50.872;5.306;2022-08-19T13:50:34;21.20;;;5.13;;
27187;SDS011;14708;50.872;5.306;2022-08-19T13:53:03;25.33;;;6.00;;
27187;SDS011;14708;50.872;5.306;2022-08-19T13:55:28;23.30;;;5.32;;
27187;SDS011;14708;50.872;5.306;2022-08-19T13:57:55;28.58;;;5.93;;
27187;SDS011;14708;50.872;5.306;2022-08-19T14:00:24;18.13;;;5.78;;
27187;SDS011;14708;50.872;5.306;2022-08-19T14:02:52;24.60;;;6.13;;
27187;SDS011;14708;50.872;5.306;2022-08-19T14:05:21;20.20;;;6.10;;
27187;SDS011;14708;50.872;5.306;2022-08-19T14:07:48;20.55;;;5.38;;
27187;SDS011;14708;50.872;5.306;2022-08-19T14:10:14;18.40;;;5.40;;
27187;SDS011;14708;50.872;5.306;2022-08-19T14:12:41;14.18;;;5.75;;
27187;SDS011;14708;50.872;5.306;2022-08-19T14:15:07;15.32;;;5.05;;
27187;SDS011;14708;50.872;5.306;2022-08-19T14:17:36;17.80;;;5.40;;
27187;SDS011;14708;50.872;5.306;2022-08-19T14:20:08;12.88;;;4.65;;
27187;SDS011;14708;50.872;5.306;2022-08-19T14:22:35;18.92;;;5.50;;
27187;SDS011;14708;50.872;5.306;2022-08-19T14:25:13;20.73;;;5.57;;
27187;SDS011;14708;50.872;5.306;2022-08-19T14:27:40;13.63;;;5.00;;
27187;SDS011;14708;50.872;5.306;2022-08-19T14:30:07;11.85;;;4.95;;
27187;SDS011;14708;50.872;5.306;2022-08-19T14:35:02;11.63;;;4.50;;
27187;SDS011;14708;50.872;5.306;2022-08-19T14:37:29;8.20;;;4.47;;
27187;SDS011;14708;50.872;5.306;2022-08-19T14:39:54;13.80;;;4.22;;
27187;SDS011;14708;50.872;5.306;2022-08-19T14:42:20;8.75;;;4.35;;
27187;SDS011;14708;50.872;5.306;2022-08-19T14:44:46;14.27;;;4.22;;
27187;SDS011;14708;50.872;5.306;2022-08-19T14:47:11;14.50;;;4.93;;
27187;SDS011;14708;50.872;5.306;2022-08-19T14:49:37;10.82;;;4.60;;
27187;SDS011;14708;50.872;5.306;2022-08-19T14:52:04;13.20;;;4.35;;
27187;SDS011;14708;50.872;5.306;2022-08-19T14:54:30;7.63;;;3.80;;
27187;SDS011;14708;50.872;5.306;2022-08-19T14:56:56;12.48;;;4.68;;
27187;SDS011;14708;50.872;5.306;2022-08-19T14:59:22;8.75;;;4.38;;
27187;SDS011;14708;50.872;5.306;2022-08-19T15:01:48;10.65;;;4.35;;
27187;SDS011;14708;50.872;5.306;2022-08-19T15:04:14;14.85;;;4.88;;
27187;SDS011;14708;50.872;5.306;2022-08-19T15:06:39;12.43;;;4.93;;
27187;SDS011;14708;50.872;5.306;2022-08-19T15:09:07;10.77;;;4.75;;
27187;SDS011;14708;50.872;5.306;2022-08-19T15:11:33;12.60;;;4.47;;
27187;SDS011;14708;50.872;5.306;2022-08-19T15:13:59;10.27;;;4.68;;
27187;SDS011;14708;50.872;5.306;2022-08-19T15:16:26;11.23;;;4.43;;